sensor_id;sensor_type;location;lat;lon;timestamp;P1;durP1;ratioP1;P2;durP2;ratioP2
81912;SDS011;71377;50.698;7.164;2023-10-13T00:01:21;9.95;;;6.10;;
81912;SDS011;71377;50.698;7.164;2023-10-13T00:03:49;13.50;;;6.50;;
81912;SDS011;71377;50.698;7.164;2023-10-13T00:06:18;10.45;;;6.10;;
81912;SDS011;71377;50.698;7.164;2023-10-13T00:08:45;10.43;;;6.70;;
81912;SDS011;71377;50.698;7.164;2023-10-13T00:11:12;10.52;;;6.93;;
81912;SDS011;71377;50.698;7.164;2023-10-13T00:13:40;16.75;;;7.18;;
81912;SDS011;71377;50.698;7.164;2023-10-13T00:16:19;10.85;;;7.32;;
81912;SDS011;71377;50.698;7.164;2023-10-13T00:18:53;11.68;;;7.47;;
81912;SDS011;71377;50.698;7.164;2023-10-13T00:21:23;11.68;;;6.97;;
81912;SDS011;71377;50.698;7.164;2023-10-13T00:26:27;10.05;;;6.97;;
81912;SDS011;71377;50.698;7.164;2023-10-13T00:28:56;13.68;;;6.55;;
81912;SDS011;71377;50.698;7.164;2023-10-13T00:31:33;11.32;;;6.85;;
81912;SDS011;71377;50.698;7.164;2023-10-13T00:34:03;10.80;;;6.30;;
81912;SDS011;71377;50.698;7.164;2023-10-13T00:36:37;10.93;;;6.95;;
81912;SDS011;71377;50.698;7.164;2023-10-13T00:39:23;17.25;;;7.03;;
81912;SDS011;71377;50.698;7.164;2023-10-13T00:41:50;14.35;;;7.18;;
81912;SDS011;71377;50.698;7.164;2023-10-13T00:44:23;14.93;;;7.25;;
81912;SDS011;71377;50.698;7.164;2023-10-13T00:47:08;16.58;;;7.22;;
81912;SDS011;71377;50.698;7.164;2023-10-13T00:49:36;14.52;;;7.50;;
81912;SDS011;71377;50.698;7.164;2023-10-13T00:52:06;13.00;;;7.13;;
81912;SDS011;71377;50.698;7.164;2023-10-13T00:54:36;14.88;;;7.25;;
81912;SDS011;71377;50.698;7.164;2023-10-13T00:57:04;13.75;;;7.43;;
81912;SDS011;71377;50.698;7.164;2023-10-13T01:02:07;16.80;;;7.55;;
81912;SDS011;71377;50.698;7.164;2023-10-13T01:05:04;12.63;;;7.55;;
81912;SDS011;71377;50.698;7.164;2023-10-13T01:07:36;18.02;;;7.80;;
81912;SDS011;71377;50.698;7.164;2023-10-13T01:10:09;15.60;;;8.00;;
81912;SDS011;71377;50.698;7.164;2023-10-13T01:12:40;14.25;;;8.10;;
81912;SDS011;71377;50.698;7.164;2023-10-13T01:15:12;17.23;;;7.97;;
81912;SDS011;71377;50.698;7.164;2023-10-13T01:17:42;18.80;;;8.05;;
81912;SDS011;71377;50.698;7.164;2023-10-13T01:20:11;15.82;;;7.53;;
81912;SDS011;71377;50.698;7.164;2023-10-13T01:22:45;17.08;;;7.78;;
81912;SDS011;71377;50.698;7.164;2023-10-13T01:25:22;16.92;;;7.78;;
81912;SDS011;71377;50.698;7.164;2023-10-13T01:27:51;15.02;;;8.70;;
81912;SDS011;71377;50.698;7.164;2023-10-13T01:30:18;12.68;;;7.78;;
81912;SDS011;71377;50.698;7.164;2023-10-13T01:32:52;15.75;;;8.27;;
81912;SDS011;71377;50.698;7.164;2023-10-13T01:35:26;13.15;;;7.78;;
81912;SDS011;71377;50.698;7.164;2023-10-13T01:38:01;12.05;;;7.20;;
81912;SDS011;71377;50.698;7.164;2023-10-13T01:40:28;15.00;;;7.95;;
81912;SDS011;71377;50.698;7.164;2023-10-13T01:42:58;14.65;;;7.93;;
81912;SDS011;71377;50.698;7.164;2023-10-13T01:45:24;14.73;;;8.45;;
81912;SDS011;71377;50.698;7.164;2023-10-13T01:47:57;12.45;;;8.27;;
81912;SDS011;71377;50.698;7.164;2023-10-13T01:50:23;15.90;;;8.63;;
81912;SDS011;71377;50.698;7.164;2023-10-13T01:52:56;13.18;;;8.23;;
81912;SDS011;71377;50.698;7.164;2023-10-13T01:55:39;15.75;;;8.48;;
81912;SDS011;71377;50.698;7.164;2023-10-13T01:58:12;13.60;;;8.02;;
81912;SDS011;71377;50.698;7.164;2023-10-13T02:00:44;15.93;;;8.40;;
81912;SDS011;71377;50.698;7.164;2023-10-13T02:03:12;13.55;;;7.22;;
81912;SDS011;71377;50.698;7.164;2023-10-13T02:05:45;12.25;;;7.57;;
81912;SDS011;71377;50.698;7.164;2023-10-13T02:08:14;15.50;;;7.88;;
81912;SDS011;71377;50.698;7.164;2023-10-13T02:10:52;13.77;;;7.57;;
81912;SDS011;71377;50.698;7.164;2023-10-13T02:13:23;15.30;;;7.57;;
81912;SDS011;71377;50.698;7.164;2023-10-13T02:15:54;15.55;;;7.50;;
81912;SDS011;71377;50.698;7.164;2023-10-13T02:18:23;15.77;;;7.80;;
81912;SDS011;71377;50.698;7.164;2023-10-13T02:20:54;16.75;;;7.65;;
81912;SDS011;71377;50.698;7.164;2023-10-13T02:23:21;17.83;;;7.43;;
81912;SDS011;71377;50.698;7.164;2023-10-13T02:25:55;11.80;;;6.88;;
81912;SDS011;71377;50.698;7.164;2023-10-13T02:28:57;13.45;;;7.65;;
81912;SDS011;71377;50.698;7.164;2023-10-13T02:31:26;14.90;;;7.97;;
81912;SDS011;71377;50.698;7.164;2023-10-13T02:33:53;18.90;;;7.95;;
81912;SDS011;71377;50.698;7.164;2023-10-13T02:36:20;13.27;;;7.50;;
81912;SDS011;71377;50.698;7.164;2023-10-13T02:39:03;14.70;;;7.25;;
81912;SDS011;71377;50.698;7.164;2023-10-13T02:41:34;13.40;;;7.38;;
81912;SDS011;71377;50.698;7.164;2023-10-13T02:44:04;11.82;;;7.25;;
81912;SDS011;71377;50.698;7.164;2023-10-13T02:46:32;15.65;;;7.60;;
81912;SDS011;71377;50.698;7.164;2023-10-13T02:49:06;15.13;;;8.20;;
81912;SDS011;71377;50.698;7.164;2023-10-13T02:51:39;13.32;;;7.20;;
81912;SDS011;71377;50.698;7.164;2023-10-13T02:54:08;8.98;;;7.25;;
81912;SDS011;71377;50.698;7.164;2023-10-13T02:56:45;11.38;;;7.35;;
81912;SDS011;71377;50.698;7.164;2023-10-13T02:59:25;9.80;;;6.85;;
81912;SDS011;71377;50.698;7.164;2023-10-13T03:02:13;13.02;;;7.38;;
81912;SDS011;71377;50.698;7.164;2023-10-13T03:04:52;16.85;;;7.30;;
81912;SDS011;71377;50.698;7.164;2023-10-13T03:07:25;12.35;;;6.93;;
81912;SDS011;71377;50.698;7.164;2023-10-13T03:09:56;15.68;;;6.60;;
81912;SDS011;71377;50.698;7.164;2023-10-13T03:12:36;12.73;;;7.68;;
81912;SDS011;71377;50.698;7.164;2023-10-13T03:15:04;14.30;;;7.50;;
81912;SDS011;71377;50.698;7.164;2023-10-13T03:17:36;15.70;;;7.57;;
81912;SDS011;71377;50.698;7.164;2023-10-13T03:20:03;12.65;;;6.80;;
81912;SDS011;71377;50.698;7.164;2023-10-13T03:22:32;12.35;;;7.10;;
81912;SDS011;71377;50.698;7.164;2023-10-13T03:24:59;16.02;;;7.60;;
81912;SDS011;71377;50.698;7.164;2023-10-13T03:27:33;10.95;;;6.85;;
81912;SDS011;71377;50.698;7.164;2023-10-13T03:30:14;12.02;;;7.07;;
81912;SDS011;71377;50.698;7.164;2023-10-13T03:32:42;13.95;;;7.82;;
81912;SDS011;71377;50.698;7.164;2023-10-13T03:35:13;12.88;;;7.30;;
81912;SDS011;71377;50.698;7.164;2023-10-13T03:37:51;12.10;;;6.72;;
81912;SDS011;71377;50.698;7.164;2023-10-13T03:40:18;13.20;;;7.20;;
81912;SDS011;71377;50.698;7.164;2023-10-13T03:42:48;16.35;;;7.82;;
81912;SDS011;71377;50.698;7.164;2023-10-13T03:45:41;12.82;;;7.00;;
81912;SDS011;71377;50.698;7.164;2023-10-13T03:48:15;12.77;;;7.57;;
81912;SDS011;71377;50.698;7.164;2023-10-13T03:50:52;11.68;;;7.03;;
81912;SDS011;71377;50.698;7.164;2023-10-13T03:53:28;14.73;;;7.63;;
81912;SDS011;71377;50.698;7.164;2023-10-13T03:56:01;13.77;;;7.47;;
81912;SDS011;71377;50.698;7.164;2023-10-13T03:58:35;21.30;;;7.68;;
81912;SDS011;71377;50.698;7.164;2023-10-13T04:01:02;11.98;;;7.15;;
81912;SDS011;71377;50.698;7.164;2023-10-13T04:03:29;13.25;;;7.70;;
81912;SDS011;71377;50.698;7.164;2023-10-13T04:06:05;12.07;;;7.80;;
81912;SDS011;71377;50.698;7.164;2023-10-13T04:08:32;16.40;;;8.38;;
81912;SDS011;71377;50.698;7.164;2023-10-13T04:11:14;17.40;;;8.43;;
81912;SDS011;71377;50.698;7.164;2023-10-13T04:16:44;13.82;;;8.23;;
81912;SDS011;71377;50.698;7.164;2023-10-13T04:19:20;15.80;;;8.57;;
81912;SDS011;71377;50.698;7.164;2023-10-13T04:21:50;14.75;;;8.73;;
81912;SDS011;71377;50.698;7.164;2023-10-13T04:24:26;13.73;;;8.57;;
81912;SDS011;71377;50.698;7.164;2023-10-13T04:27:25;14.43;;;8.50;;
81912;SDS011;71377;50.698;7.164;2023-10-13T04:30:19;14.93;;;8.17;;
81912;SDS011;71377;50.698;7.164;2023-10-13T04:32:53;13.48;;;8.13;;
81912;SDS011;71377;50.698;7.164;2023-10-13T04:35:39;14.95;;;7.68;;
81912;SDS011;71377;50.698;7.164;2023-10-13T04:38:13;13.98;;;7.10;;
81912;SDS011;71377;50.698;7.164;2023-10-13T04:40:46;16.10;;;6.97;;
81912;SDS011;71377;50.698;7.164;2023-10-13T04:43:27;12.82;;;6.97;;
81912;SDS011;71377;50.698;7.164;2023-10-13T04:46:20;16.05;;;7.47;;
81912;SDS011;71377;50.698;7.164;2023-10-13T04:49:12;10.68;;;7.15;;
81912;SDS011;71377;50.698;7.164;2023-10-13T04:52:04;13.65;;;6.50;;
81912;SDS011;71377;50.698;7.164;2023-10-13T04:54:44;15.40;;;7.20;;
81912;SDS011;71377;50.698;7.164;2023-10-13T04:57:14;12.98;;;7.03;;
81912;SDS011;71377;50.698;7.164;2023-10-13T05:02:31;12.18;;;6.43;;
81912;SDS011;71377;50.698;7.164;2023-10-13T05:05:08;15.30;;;6.43;;
81912;SDS011;71377;50.698;7.164;2023-10-13T05:07:39;10.85;;;6.38;;
81912;SDS011;71377;50.698;7.164;2023-10-13T05:10:28;12.77;;;6.53;;
81912;SDS011;71377;50.698;7.164;2023-10-13T05:13:13;15.43;;;6.55;;
81912;SDS011;71377;50.698;7.164;2023-10-13T05:15:59;14.70;;;6.28;;
81912;SDS011;71377;50.698;7.164;2023-10-13T05:18:44;9.82;;;6.25;;
81912;SDS011;71377;50.698;7.164;2023-10-13T05:21:29;14.52;;;6.50;;
81912;SDS011;71377;50.698;7.164;2023-10-13T05:24:14;13.50;;;6.40;;
81912;SDS011;71377;50.698;7.164;2023-10-13T05:26:59;9.95;;;6.10;;
81912;SDS011;71377;50.698;7.164;2023-10-13T05:29:45;11.95;;;6.65;;
81912;SDS011;71377;50.698;7.164;2023-10-13T05:32:32;12.98;;;6.80;;
81912;SDS011;71377;50.698;7.164;2023-10-13T05:35:19;11.52;;;6.25;;
81912;SDS011;71377;50.698;7.164;2023-10-13T05:38:05;10.63;;;6.13;;
81912;SDS011;71377;50.698;7.164;2023-10-13T05:40:58;12.32;;;5.82;;
81912;SDS011;71377;50.698;7.164;2023-10-13T05:43:48;14.07;;;5.95;;
81912;SDS011;71377;50.698;7.164;2023-10-13T05:46:33;13.73;;;5.97;;
81912;SDS011;71377;50.698;7.164;2023-10-13T05:49:04;10.50;;;5.60;;
81912;SDS011;71377;50.698;7.164;2023-10-13T05:51:37;12.60;;;5.95;;
81912;SDS011;71377;50.698;7.164;2023-10-13T05:54:05;11.93;;;5.70;;
81912;SDS011;71377;50.698;7.164;2023-10-13T05:59:34;10.02;;;5.72;;
81912;SDS011;71377;50.698;7.164;2023-10-13T06:02:21;13.10;;;6.03;;
81912;SDS011;71377;50.698;7.164;2023-10-13T06:05:08;13.73;;;5.70;;
81912;SDS011;71377;50.698;7.164;2023-10-13T06:07:55;12.38;;;6.00;;
81912;SDS011;71377;50.698;7.164;2023-10-13T06:10:42;10.85;;;5.35;;
81912;SDS011;71377;50.698;7.164;2023-10-13T06:13:28;11.63;;;5.82;;
81912;SDS011;71377;50.698;7.164;2023-10-13T06:16:15;13.05;;;5.18;;
81912;SDS011;71377;50.698;7.164;2023-10-13T06:19:01;13.05;;;6.03;;
81912;SDS011;71377;50.698;7.164;2023-10-13T06:21:47;14.57;;;5.30;;
81912;SDS011;71377;50.698;7.164;2023-10-13T06:24:33;13.25;;;5.40;;
81912;SDS011;71377;50.698;7.164;2023-10-13T06:27:18;11.20;;;5.53;;
81912;SDS011;71377;50.698;7.164;2023-10-13T06:30:03;13.50;;;5.35;;
81912;SDS011;71377;50.698;7.164;2023-10-13T06:32:32;11.10;;;4.80;;
81912;SDS011;71377;50.698;7.164;2023-10-13T06:34:59;14.57;;;5.43;;
81912;SDS011;71377;50.698;7.164;2023-10-13T06:37:33;10.65;;;5.30;;
81912;SDS011;71377;50.698;7.164;2023-10-13T06:40:02;16.38;;;5.20;;
81912;SDS011;71377;50.698;7.164;2023-10-13T06:42:48;13.43;;;4.95;;
81912;SDS011;71377;50.698;7.164;2023-10-13T06:45:15;15.85;;;5.25;;
81912;SDS011;71377;50.698;7.164;2023-10-13T06:47:43;12.07;;;5.30;;
81912;SDS011;71377;50.698;7.164;2023-10-13T06:50:10;12.32;;;4.85;;
81912;SDS011;71377;50.698;7.164;2023-10-13T06:52:46;11.63;;;4.80;;
81912;SDS011;71377;50.698;7.164;2023-10-13T06:55:15;12.63;;;5.10;;
81912;SDS011;71377;50.698;7.164;2023-10-13T07:00:17;16.52;;;5.13;;
81912;SDS011;71377;50.698;7.164;2023-10-13T07:02:56;13.70;;;4.78;;
81912;SDS011;71377;50.698;7.164;2023-10-13T07:08:02;11.13;;;5.10;;
81912;SDS011;71377;50.698;7.164;2023-10-13T07:10:30;15.27;;;5.35;;
81912;SDS011;71377;50.698;7.164;2023-10-13T07:13:01;16.90;;;5.03;;
81912;SDS011;71377;50.698;7.164;2023-10-13T07:15:30;21.48;;;5.85;;
81912;SDS011;71377;50.698;7.164;2023-10-13T07:17:57;17.70;;;4.80;;
81912;SDS011;71377;50.698;7.164;2023-10-13T07:20:25;13.55;;;4.93;;
81912;SDS011;71377;50.698;7.164;2023-10-13T07:22:53;13.65;;;5.32;;
81912;SDS011;71377;50.698;7.164;2023-10-13T07:25:32;20.73;;;5.55;;
81912;SDS011;71377;50.698;7.164;2023-10-13T07:28:01;15.07;;;5.30;;
81912;SDS011;71377;50.698;7.164;2023-10-13T07:30:29;17.40;;;5.40;;
81912;SDS011;71377;50.698;7.164;2023-10-13T07:33:06;12.95;;;5.20;;
81912;SDS011;71377;50.698;7.164;2023-10-13T07:35:32;19.65;;;5.30;;
81912;SDS011;71377;50.698;7.164;2023-10-13T07:38:01;21.10;;;5.95;;
81912;SDS011;71377;50.698;7.164;2023-10-13T07:40:29;15.02;;;4.88;;
81912;SDS011;71377;50.698;7.164;2023-10-13T07:42:55;16.88;;;5.55;;
81912;SDS011;71377;50.698;7.164;2023-10-13T07:45:38;20.92;;;5.00;;
81912;SDS011;71377;50.698;7.164;2023-10-13T07:48:08;13.18;;;4.47;;
81912;SDS011;71377;50.698;7.164;2023-10-13T07:53:29;13.02;;;4.40;;
81912;SDS011;71377;50.698;7.164;2023-10-13T07:56:06;12.93;;;4.43;;
81912;SDS011;71377;50.698;7.164;2023-10-13T07:58:38;17.70;;;5.22;;
81912;SDS011;71377;50.698;7.164;2023-10-13T08:01:34;15.15;;;4.30;;
81912;SDS011;71377;50.698;7.164;2023-10-13T08:04:03;18.85;;;4.55;;
81912;SDS011;71377;50.698;7.164;2023-10-13T08:06:38;14.30;;;4.18;;
81912;SDS011;71377;50.698;7.164;2023-10-13T08:09:11;12.02;;;4.40;;
81912;SDS011;71377;50.698;7.164;2023-10-13T08:11:56;13.95;;;4.18;;
81912;SDS011;71377;50.698;7.164;2023-10-13T08:14:22;15.65;;;4.43;;
81912;SDS011;71377;50.698;7.164;2023-10-13T08:17:02;16.83;;;4.50;;
81912;SDS011;71377;50.698;7.164;2023-10-13T08:19:33;11.45;;;4.25;;
81912;SDS011;71377;50.698;7.164;2023-10-13T08:22:08;14.98;;;4.35;;
81912;SDS011;71377;50.698;7.164;2023-10-13T08:24:45;20.85;;;4.50;;
81912;SDS011;71377;50.698;7.164;2023-10-13T08:27:16;14.30;;;4.57;;
81912;SDS011;71377;50.698;7.164;2023-10-13T08:30:02;15.70;;;4.18;;
81912;SDS011;71377;50.698;7.164;2023-10-13T08:32:52;8.90;;;3.53;;
81912;SDS011;71377;50.698;7.164;2023-10-13T08:35:23;15.07;;;4.57;;
81912;SDS011;71377;50.698;7.164;2023-10-13T08:37:56;16.92;;;4.15;;
81912;SDS011;71377;50.698;7.164;2023-10-13T08:40:36;19.83;;;5.10;;
81912;SDS011;71377;50.698;7.164;2023-10-13T08:43:10;16.60;;;4.53;;
81912;SDS011;71377;50.698;7.164;2023-10-13T08:45:40;16.63;;;5.20;;
81912;SDS011;71377;50.698;7.164;2023-10-13T08:48:11;19.27;;;4.82;;
81912;SDS011;71377;50.698;7.164;2023-10-13T08:50:46;14.95;;;4.63;;
81912;SDS011;71377;50.698;7.164;2023-10-13T08:55:58;12.65;;;4.53;;
81912;SDS011;71377;50.698;7.164;2023-10-13T08:58:28;17.13;;;4.93;;
81912;SDS011;71377;50.698;7.164;2023-10-13T09:01:15;11.88;;;4.40;;
81912;SDS011;71377;50.698;7.164;2023-10-13T09:04:01;15.13;;;5.15;;
81912;SDS011;71377;50.698;7.164;2023-10-13T09:09:32;13.75;;;4.90;;
81912;SDS011;71377;50.698;7.164;2023-10-13T09:12:02;14.50;;;4.47;;
81912;SDS011;71377;50.698;7.164;2023-10-13T09:14:41;14.18;;;4.75;;
81912;SDS011;71377;50.698;7.164;2023-10-13T09:17:13;23.33;;;5.22;;
81912;SDS011;71377;50.698;7.164;2023-10-13T09:20:04;18.35;;;5.43;;
81912;SDS011;71377;50.698;7.164;2023-10-13T09:22:54;11.20;;;5.10;;
81912;SDS011;71377;50.698;7.164;2023-10-13T09:25:30;12.60;;;5.07;;
81912;SDS011;71377;50.698;7.164;2023-10-13T09:28:14;12.98;;;4.82;;
81912;SDS011;71377;50.698;7.164;2023-10-13T09:30:45;10.07;;;4.70;;
81912;SDS011;71377;50.698;7.164;2023-10-13T09:33:48;9.73;;;4.60;;
81912;SDS011;71377;50.698;7.164;2023-10-13T09:36:17;15.70;;;4.85;;
81912;SDS011;71377;50.698;7.164;2023-10-13T09:38:44;12.55;;;4.70;;
81912;SDS011;71377;50.698;7.164;2023-10-13T09:41:15;9.25;;;4.75;;
81912;SDS011;71377;50.698;7.164;2023-10-13T09:43:44;12.38;;;4.47;;
81912;SDS011;71377;50.698;7.164;2023-10-13T09:46:15;11.70;;;4.43;;
81912;SDS011;71377;50.698;7.164;2023-10-13T09:48:51;8.32;;;4.47;;
81912;SDS011;71377;50.698;7.164;2023-10-13T09:51:40;12.40;;;5.25;;
81912;SDS011;71377;50.698;7.164;2023-10-13T09:54:17;13.60;;;4.90;;
81912;SDS011;71377;50.698;7.164;2023-10-13T09:57:12;11.32;;;5.03;;
81912;SDS011;71377;50.698;7.164;2023-10-13T10:02:23;17.35;;;4.80;;
81912;SDS011;71377;50.698;7.164;2023-10-13T10:04:56;7.80;;;4.30;;
81912;SDS011;71377;50.698;7.164;2023-10-13T10:07:39;11.65;;;5.25;;
81912;SDS011;71377;50.698;7.164;2023-10-13T10:10:10;16.33;;;5.03;;
81912;SDS011;71377;50.698;7.164;2023-10-13T10:15:26;15.18;;;4.53;;
81912;SDS011;71377;50.698;7.164;2023-10-13T10:17:57;12.23;;;4.72;;
81912;SDS011;71377;50.698;7.164;2023-10-13T10:20:32;10.23;;;4.85;;
81912;SDS011;71377;50.698;7.164;2023-10-13T10:23:12;15.18;;;5.53;;
81912;SDS011;71377;50.698;7.164;2023-10-13T10:25:50;9.05;;;5.15;;
81912;SDS011;71377;50.698;7.164;2023-10-13T10:28:34;11.65;;;5.00;;
81912;SDS011;71377;50.698;7.164;2023-10-13T10:31:05;13.20;;;4.95;;
81912;SDS011;71377;50.698;7.164;2023-10-13T10:33:35;13.05;;;5.28;;
81912;SDS011;71377;50.698;7.164;2023-10-13T10:36:02;12.77;;;5.15;;
81912;SDS011;71377;50.698;7.164;2023-10-13T10:38:28;15.63;;;4.72;;
81912;SDS011;71377;50.698;7.164;2023-10-13T10:40:57;10.82;;;4.40;;
81912;SDS011;71377;50.698;7.164;2023-10-13T10:46:17;12.73;;;4.97;;
81912;SDS011;71377;50.698;7.164;2023-10-13T10:48:45;11.88;;;4.70;;
81912;SDS011;71377;50.698;7.164;2023-10-13T10:51:12;11.77;;;4.50;;
81912;SDS011;71377;50.698;7.164;2023-10-13T10:53:41;12.13;;;5.38;;
81912;SDS011;71377;50.698;7.164;2023-10-13T10:56:11;11.23;;;5.03;;
81912;SDS011;71377;50.698;7.164;2023-10-13T10:58:58;12.90;;;5.05;;
81912;SDS011;71377;50.698;7.164;2023-10-13T11:01:27;11.85;;;4.82;;
81912;SDS011;71377;50.698;7.164;2023-10-13T11:04:05;13.85;;;5.18;;
81912;SDS011;71377;50.698;7.164;2023-10-13T11:06:46;8.95;;;4.43;;
81912;SDS011;71377;50.698;7.164;2023-10-13T11:09:25;11.35;;;4.82;;
81912;SDS011;71377;50.698;7.164;2023-10-13T11:12:13;13.20;;;4.78;;
81912;SDS011;71377;50.698;7.164;2023-10-13T11:15:08;13.68;;;5.20;;
81912;SDS011;71377;50.698;7.164;2023-10-13T11:17:40;12.40;;;4.63;;
81912;SDS011;71377;50.698;7.164;2023-10-13T11:20:16;14.85;;;4.40;;
81912;SDS011;71377;50.698;7.164;2023-10-13T11:22:45;11.57;;;4.20;;
81912;SDS011;71377;50.698;7.164;2023-10-13T11:25:24;9.18;;;4.35;;
81912;SDS011;71377;50.698;7.164;2023-10-13T11:28:10;11.95;;;4.18;;
81912;SDS011;71377;50.698;7.164;2023-10-13T11:30:44;12.68;;;4.00;;
81912;SDS011;71377;50.698;7.164;2023-10-13T11:33:18;10.82;;;4.32;;
81912;SDS011;71377;50.698;7.164;2023-10-13T11:35:47;11.18;;;4.40;;
81912;SDS011;71377;50.698;7.164;2023-10-13T11:38:33;13.85;;;4.18;;
81912;SDS011;71377;50.698;7.164;2023-10-13T11:41:06;10.85;;;4.07;;
81912;SDS011;71377;50.698;7.164;2023-10-13T11:43:36;9.88;;;4.95;;
81912;SDS011;71377;50.698;7.164;2023-10-13T11:46:10;8.18;;;3.88;;
81912;SDS011;71377;50.698;7.164;2023-10-13T11:48:37;11.18;;;4.40;;
81912;SDS011;71377;50.698;7.164;2023-10-13T11:51:04;12.02;;;4.63;;
81912;SDS011;71377;50.698;7.164;2023-10-13T11:53:37;15.43;;;4.90;;
81912;SDS011;71377;50.698;7.164;2023-10-13T11:56:04;11.18;;;4.57;;
81912;SDS011;71377;50.698;7.164;2023-10-13T11:58:37;7.82;;;4.07;;
81912;SDS011;71377;50.698;7.164;2023-10-13T12:01:04;15.82;;;4.30;;
81912;SDS011;71377;50.698;7.164;2023-10-13T12:03:49;12.60;;;4.50;;
81912;SDS011;71377;50.698;7.164;2023-10-13T12:06:34;13.90;;;4.85;;
81912;SDS011;71377;50.698;7.164;2023-10-13T12:09:08;13.90;;;4.80;;
81912;SDS011;71377;50.698;7.164;2023-10-13T12:11:45;11.52;;;4.55;;
81912;SDS011;71377;50.698;7.164;2023-10-13T12:14:12;12.40;;;4.15;;
81912;SDS011;71377;50.698;7.164;2023-10-13T12:16:53;10.18;;;4.10;;
81912;SDS011;71377;50.698;7.164;2023-10-13T12:19:22;12.35;;;4.72;;
81912;SDS011;71377;50.698;7.164;2023-10-13T12:21:50;13.70;;;4.50;;
81912;SDS011;71377;50.698;7.164;2023-10-13T12:24:24;12.05;;;4.70;;
81912;SDS011;71377;50.698;7.164;2023-10-13T12:27:03;10.40;;;4.47;;
81912;SDS011;71377;50.698;7.164;2023-10-13T12:29:48;10.27;;;3.78;;
81912;SDS011;71377;50.698;7.164;2023-10-13T12:32:18;13.20;;;4.65;;
81912;SDS011;71377;50.698;7.164;2023-10-13T12:34:57;10.70;;;4.63;;
81912;SDS011;71377;50.698;7.164;2023-10-13T12:37:42;8.82;;;4.07;;
81912;SDS011;71377;50.698;7.164;2023-10-13T12:40:13;13.98;;;3.85;;
81912;SDS011;71377;50.698;7.164;2023-10-13T12:42:59;13.43;;;4.25;;
81912;SDS011;71377;50.698;7.164;2023-10-13T12:45:46;11.65;;;4.43;;
81912;SDS011;71377;50.698;7.164;2023-10-13T12:48:49;14.82;;;4.63;;
81912;SDS011;71377;50.698;7.164;2023-10-13T12:51:22;16.65;;;4.18;;
81912;SDS011;71377;50.698;7.164;2023-10-13T12:53:58;10.60;;;4.13;;
81912;SDS011;71377;50.698;7.164;2023-10-13T12:56:44;7.07;;;3.75;;
81912;SDS011;71377;50.698;7.164;2023-10-13T12:59:10;13.52;;;4.47;;
81912;SDS011;71377;50.698;7.164;2023-10-13T13:01:40;11.82;;;4.45;;
81912;SDS011;71377;50.698;7.164;2023-10-13T13:04:10;15.02;;;4.60;;
81912;SDS011;71377;50.698;7.164;2023-10-13T13:06:47;11.95;;;4.75;;
81912;SDS011;71377;50.698;7.164;2023-10-13T13:09:19;11.50;;;4.78;;
81912;SDS011;71377;50.698;7.164;2023-10-13T13:11:52;8.20;;;4.15;;
81912;SDS011;71377;50.698;7.164;2023-10-13T13:14:24;13.98;;;4.32;;
81912;SDS011;71377;50.698;7.164;2023-10-13T13:16:56;10.35;;;4.32;;
81912;SDS011;71377;50.698;7.164;2023-10-13T13:19:41;12.38;;;4.20;;
81912;SDS011;71377;50.698;7.164;2023-10-13T13:22:08;11.93;;;4.20;;
81912;SDS011;71377;50.698;7.164;2023-10-13T13:24:39;12.80;;;4.05;;
81912;SDS011;71377;50.698;7.164;2023-10-13T13:27:12;8.90;;;4.30;;
81912;SDS011;71377;50.698;7.164;2023-10-13T13:29:41;15.02;;;4.35;;
81912;SDS011;71377;50.698;7.164;2023-10-13T13:32:07;16.63;;;4.30;;
81912;SDS011;71377;50.698;7.164;2023-10-13T13:34:45;16.15;;;4.45;;
81912;SDS011;71377;50.698;7.164;2023-10-13T13:37:20;14.35;;;5.18;;
81912;SDS011;71377;50.698;7.164;2023-10-13T13:39:47;15.80;;;4.20;;
81912;SDS011;71377;50.698;7.164;2023-10-13T13:42:13;12.40;;;3.90;;
81912;SDS011;71377;50.698;7.164;2023-10-13T13:44:47;15.13;;;4.30;;
81912;SDS011;71377;50.698;7.164;2023-10-13T13:47:14;17.30;;;4.32;;
81912;SDS011;71377;50.698;7.164;2023-10-13T13:49:41;15.10;;;4.20;;
81912;SDS011;71377;50.698;7.164;2023-10-13T13:52:12;9.77;;;3.85;;
81912;SDS011;71377;50.698;7.164;2023-10-13T13:54:47;13.48;;;4.53;;
81912;SDS011;71377;50.698;7.164;2023-10-13T13:57:14;12.18;;;3.95;;
81912;SDS011;71377;50.698;7.164;2023-10-13T13:59:41;8.95;;;4.30;;
81912;SDS011;71377;50.698;7.164;2023-10-13T14:02:11;13.90;;;4.13;;
81912;SDS011;71377;50.698;7.164;2023-10-13T14:04:47;11.82;;;4.18;;
81912;SDS011;71377;50.698;7.164;2023-10-13T14:07:18;11.57;;;4.45;;
81912;SDS011;71377;50.698;7.164;2023-10-13T14:09:46;13.35;;;4.15;;
81912;SDS011;71377;50.698;7.164;2023-10-13T14:12:18;10.50;;;4.38;;
81912;SDS011;71377;50.698;7.164;2023-10-13T14:15:08;12.93;;;4.50;;
81912;SDS011;71377;50.698;7.164;2023-10-13T14:17:46;13.32;;;4.38;;
81912;SDS011;71377;50.698;7.164;2023-10-13T14:20:15;12.07;;;4.40;;
81912;SDS011;71377;50.698;7.164;2023-10-13T14:22:45;11.63;;;4.03;;
81912;SDS011;71377;50.698;7.164;2023-10-13T14:25:14;13.32;;;4.28;;
81912;SDS011;71377;50.698;7.164;2023-10-13T14:27:41;12.02;;;3.95;;
81912;SDS011;71377;50.698;7.164;2023-10-13T14:30:08;13.25;;;4.15;;
81912;SDS011;71377;50.698;7.164;2023-10-13T14:32:35;8.65;;;3.42;;
81912;SDS011;71377;50.698;7.164;2023-10-13T14:35:06;8.90;;;3.80;;
81912;SDS011;71377;50.698;7.164;2023-10-13T14:37:42;10.60;;;4.10;;
81912;SDS011;71377;50.698;7.164;2023-10-13T14:40:09;14.18;;;3.92;;
81912;SDS011;71377;50.698;7.164;2023-10-13T14:42:40;12.43;;;4.05;;
81912;SDS011;71377;50.698;7.164;2023-10-13T14:45:07;13.70;;;4.22;;
81912;SDS011;71377;50.698;7.164;2023-10-13T14:47:40;12.80;;;4.07;;
81912;SDS011;71377;50.698;7.164;2023-10-13T14:50:07;12.50;;;4.30;;
81912;SDS011;71377;50.698;7.164;2023-10-13T14:52:40;12.05;;;4.20;;
81912;SDS011;71377;50.698;7.164;2023-10-13T14:55:08;10.55;;;4.03;;
81912;SDS011;71377;50.698;7.164;2023-10-13T14:57:49;11.18;;;4.43;;
81912;SDS011;71377;50.698;7.164;2023-10-13T15:00:17;8.50;;;3.78;;
81912;SDS011;71377;50.698;7.164;2023-10-13T15:02:51;8.15;;;4.18;;
81912;SDS011;71377;50.698;7.164;2023-10-13T15:05:19;11.60;;;4.38;;
81912;SDS011;71377;50.698;7.164;2023-10-13T15:07:45;14.27;;;4.60;;
81912;SDS011;71377;50.698;7.164;2023-10-13T15:10:13;13.77;;;4.65;;
81912;SDS011;71377;50.698;7.164;2023-10-13T15:12:43;11.70;;;4.10;;
81912;SDS011;71377;50.698;7.164;2023-10-13T15:15:12;11.30;;;4.50;;
81912;SDS011;71377;50.698;7.164;2023-10-13T15:17:40;11.45;;;4.40;;
81912;SDS011;71377;50.698;7.164;2023-10-13T15:20:07;12.07;;;4.60;;
81912;SDS011;71377;50.698;7.164;2023-10-13T15:22:42;9.57;;;4.35;;
81912;SDS011;71377;50.698;7.164;2023-10-13T15:25:09;15.68;;;4.30;;
81912;SDS011;71377;50.698;7.164;2023-10-13T15:27:58;12.45;;;4.07;;
81912;SDS011;71377;50.698;7.164;2023-10-13T15:30:29;10.85;;;3.88;;
81912;SDS011;71377;50.698;7.164;2023-10-13T15:33:19;9.88;;;4.22;;
81912;SDS011;71377;50.698;7.164;2023-10-13T15:35:46;9.63;;;3.67;;
81912;SDS011;71377;50.698;7.164;2023-10-13T15:38:13;9.55;;;4.30;;
81912;SDS011;71377;50.698;7.164;2023-10-13T15:40:40;8.27;;;3.72;;
81912;SDS011;71377;50.698;7.164;2023-10-13T15:43:10;8.98;;;4.10;;
81912;SDS011;71377;50.698;7.164;2023-10-13T15:45:37;8.85;;;4.10;;
81912;SDS011;71377;50.698;7.164;2023-10-13T15:48:09;10.15;;;4.07;;
81912;SDS011;71377;50.698;7.164;2023-10-13T15:50:41;8.48;;;3.95;;
81912;SDS011;71377;50.698;7.164;2023-10-13T15:53:08;11.93;;;3.80;;
81912;SDS011;71377;50.698;7.164;2023-10-13T15:55:39;7.75;;;3.80;;